sensor_id;sensor_type;location;lat;lon;timestamp;P1;durP1;ratioP1;P2;durP2;ratioP2
17790;SDS011;9019;48.132;-1.210;2023-10-31T00:00:11;8.77;;;4.00;;
17790;SDS011;9019;48.132;-1.210;2023-10-31T00:02:39;9.00;;;3.53;;
17790;SDS011;9019;48.132;-1.210;2023-10-31T00:05:07;9.00;;;3.70;;
17790;SDS011;9019;48.132;-1.210;2023-10-31T00:07:35;10.63;;;4.17;;
17790;SDS011;9019;48.132;-1.210;2023-10-31T00:10:02;9.73;;;3.63;;
17790;SDS011;9019;48.132;-1.210;2023-10-31T00:12:29;9.27;;;3.77;;
17790;SDS011;9019;48.132;-1.210;2023-10-31T00:14:56;7.83;;;3.60;;
17790;SDS011;9019;48.132;-1.210;2023-10-31T00:17:24;9.33;;;3.83;;
17790;SDS011;9019;48.132;-1.210;2023-10-31T00:19:51;14.20;;;4.07;;
17790;SDS011;9019;48.132;-1.210;2023-10-31T00:22:19;10.33;;;4.10;;
17790;SDS011;9019;48.132;-1.210;2023-10-31T00:24:47;9.33;;;3.50;;
17790;SDS011;9019;48.132;-1.210;2023-10-31T00:27:15;10.10;;;3.83;;
17790;SDS011;9019;48.132;-1.210;2023-10-31T00:29:42;11.67;;;3.90;;
17790;SDS011;9019;48.132;-1.210;2023-10-31T00:32:10;11.50;;;4.17;;
17790;SDS011;9019;48.132;-1.210;2023-10-31T00:34:37;11.80;;;4.50;;
17790;SDS011;9019;48.132;-1.210;2023-10-31T00:37:04;13.97;;;3.90;;
17790;SDS011;9019;48.132;-1.210;2023-10-31T00:39:33;7.50;;;3.67;;
17790;SDS011;9019;48.132;-1.210;2023-10-31T00:42:00;13.23;;;3.80;;
17790;SDS011;9019;48.132;-1.210;2023-10-31T00:44:27;9.50;;;3.60;;
17790;SDS011;9019;48.132;-1.210;2023-10-31T00:46:55;10.70;;;4.00;;
17790;SDS011;9019;48.132;-1.210;2023-10-31T00:49:22;12.23;;;3.83;;
17790;SDS011;9019;48.132;-1.210;2023-10-31T00:51:49;11.83;;;3.30;;
17790;SDS011;9019;48.132;-1.210;2023-10-31T00:54:16;11.43;;;3.40;;
17790;SDS011;9019;48.132;-1.210;2023-10-31T00:56:45;10.40;;;3.53;;
17790;SDS011;9019;48.132;-1.210;2023-10-31T00:59:13;8.33;;;3.40;;
17790;SDS011;9019;48.132;-1.210;2023-10-31T01:01:40;11.73;;;3.50;;
17790;SDS011;9019;48.132;-1.210;2023-10-31T01:04:07;9.37;;;3.23;;
17790;SDS011;9019;48.132;-1.210;2023-10-31T01:06:39;7.93;;;3.30;;
17790;SDS011;9019;48.132;-1.210;2023-10-31T01:09:06;8.60;;;3.00;;
17790;SDS011;9019;48.132;-1.210;2023-10-31T01:11:33;13.90;;;4.30;;
17790;SDS011;9019;48.132;-1.210;2023-10-31T01:14:02;8.97;;;3.90;;
17790;SDS011;9019;48.132;-1.210;2023-10-31T01:16:30;9.80;;;3.60;;
17790;SDS011;9019;48.132;-1.210;2023-10-31T01:18:57;9.40;;;3.60;;
17790;SDS011;9019;48.132;-1.210;2023-10-31T01:21:24;10.40;;;3.40;;
17790;SDS011;9019;48.132;-1.210;2023-10-31T01:23:51;9.40;;;3.47;;
17790;SDS011;9019;48.132;-1.210;2023-10-31T01:26:19;8.97;;;3.70;;
17790;SDS011;9019;48.132;-1.210;2023-10-31T01:28:46;11.47;;;3.77;;
17790;SDS011;9019;48.132;-1.210;2023-10-31T01:31:14;11.33;;;3.70;;
17790;SDS011;9019;48.132;-1.210;2023-10-31T01:33:42;10.23;;;3.70;;
17790;SDS011;9019;48.132;-1.210;2023-10-31T01:36:09;10.63;;;3.73;;
17790;SDS011;9019;48.132;-1.210;2023-10-31T01:38:37;9.43;;;3.63;;
17790;SDS011;9019;48.132;-1.210;2023-10-31T01:41:04;8.67;;;3.63;;
17790;SDS011;9019;48.132;-1.210;2023-10-31T01:43:32;13.87;;;3.90;;
17790;SDS011;9019;48.132;-1.210;2023-10-31T01:46:00;10.67;;;3.87;;
17790;SDS011;9019;48.132;-1.210;2023-10-31T01:48:29;11.63;;;3.57;;
17790;SDS011;9019;48.132;-1.210;2023-10-31T01:50:56;13.17;;;4.23;;
17790;SDS011;9019;48.132;-1.210;2023-10-31T01:53:23;12.17;;;3.40;;
17790;SDS011;9019;48.132;-1.210;2023-10-31T01:55:51;11.40;;;3.43;;
17790;SDS011;9019;48.132;-1.210;2023-10-31T01:58:20;8.93;;;3.40;;
17790;SDS011;9019;48.132;-1.210;2023-10-31T02:00:48;11.97;;;3.30;;
17790;SDS011;9019;48.132;-1.210;2023-10-31T02:03:15;13.70;;;3.47;;
17790;SDS011;9019;48.132;-1.210;2023-10-31T02:05:43;11.13;;;4.03;;
17790;SDS011;9019;48.132;-1.210;2023-10-31T02:08:12;9.00;;;3.47;;
17790;SDS011;9019;48.132;-1.210;2023-10-31T02:10:39;13.27;;;3.33;;
17790;SDS011;9019;48.132;-1.210;2023-10-31T02:13:12;13.77;;;3.30;;
17790;SDS011;9019;48.132;-1.210;2023-10-31T02:15:40;9.00;;;3.10;;
17790;SDS011;9019;48.132;-1.210;2023-10-31T02:18:07;10.53;;;3.33;;
17790;SDS011;9019;48.132;-1.210;2023-10-31T02:20:34;10.20;;;3.33;;
17790;SDS011;9019;48.132;-1.210;2023-10-31T02:23:03;12.70;;;3.60;;
17790;SDS011;9019;48.132;-1.210;2023-10-31T02:25:30;10.63;;;3.63;;
17790;SDS011;9019;48.132;-1.210;2023-10-31T02:27:57;11.63;;;3.67;;
17790;SDS011;9019;48.132;-1.210;2023-10-31T02:30:25;13.53;;;3.77;;
17790;SDS011;9019;48.132;-1.210;2023-10-31T02:32:52;13.33;;;4.03;;
17790;SDS011;9019;48.132;-1.210;2023-10-31T02:35:19;11.20;;;3.50;;
17790;SDS011;9019;48.132;-1.210;2023-10-31T02:37:47;13.07;;;3.87;;
17790;SDS011;9019;48.132;-1.210;2023-10-31T02:40:15;11.57;;;3.60;;
17790;SDS011;9019;48.132;-1.210;2023-10-31T02:42:43;13.10;;;3.60;;
17790;SDS011;9019;48.132;-1.210;2023-10-31T02:45:10;10.97;;;3.17;;
17790;SDS011;9019;48.132;-1.210;2023-10-31T02:47:38;10.93;;;3.20;;
17790;SDS011;9019;48.132;-1.210;2023-10-31T02:50:05;13.07;;;3.33;;
17790;SDS011;9019;48.132;-1.210;2023-10-31T02:52:33;10.80;;;3.20;;
17790;SDS011;9019;48.132;-1.210;2023-10-31T02:55:00;10.47;;;3.70;;
17790;SDS011;9019;48.132;-1.210;2023-10-31T02:57:28;11.67;;;3.50;;
17790;SDS011;9019;48.132;-1.210;2023-10-31T02:59:56;11.03;;;3.33;;
17790;SDS011;9019;48.132;-1.210;2023-10-31T03:02:23;10.23;;;3.33;;
17790;SDS011;9019;48.132;-1.210;2023-10-31T03:04:50;11.30;;;3.40;;
17790;SDS011;9019;48.132;-1.210;2023-10-31T03:07:17;12.90;;;3.77;;
17790;SDS011;9019;48.132;-1.210;2023-10-31T03:09:44;10.37;;;3.20;;
17790;SDS011;9019;48.132;-1.210;2023-10-31T03:12:12;9.00;;;3.43;;
17790;SDS011;9019;48.132;-1.210;2023-10-31T03:14:40;9.60;;;3.00;;
17790;SDS011;9019;48.132;-1.210;2023-10-31T03:17:07;10.07;;;2.87;;
17790;SDS011;9019;48.132;-1.210;2023-10-31T03:19:35;11.77;;;3.30;;
17790;SDS011;9019;48.132;-1.210;2023-10-31T03:22:02;11.27;;;3.33;;
17790;SDS011;9019;48.132;-1.210;2023-10-31T03:24:29;9.50;;;3.40;;
17790;SDS011;9019;48.132;-1.210;2023-10-31T03:26:56;8.67;;;3.10;;
17790;SDS011;9019;48.132;-1.210;2023-10-31T03:29:24;10.20;;;3.20;;
17790;SDS011;9019;48.132;-1.210;2023-10-31T03:31:52;10.70;;;3.30;;
17790;SDS011;9019;48.132;-1.210;2023-10-31T03:34:19;11.90;;;3.33;;
17790;SDS011;9019;48.132;-1.210;2023-10-31T03:36:46;11.80;;;3.10;;
17790;SDS011;9019;48.132;-1.210;2023-10-31T03:39:14;11.20;;;2.87;;
17790;SDS011;9019;48.132;-1.210;2023-10-31T03:41:41;12.40;;;3.13;;
17790;SDS011;9019;48.132;-1.210;2023-10-31T03:44:08;11.50;;;3.20;;
17790;SDS011;9019;48.132;-1.210;2023-10-31T03:46:36;8.87;;;3.03;;
17790;SDS011;9019;48.132;-1.210;2023-10-31T03:49:04;9.10;;;2.70;;
17790;SDS011;9019;48.132;-1.210;2023-10-31T03:51:32;11.93;;;3.00;;
17790;SDS011;9019;48.132;-1.210;2023-10-31T03:54:00;11.90;;;3.20;;
17790;SDS011;9019;48.132;-1.210;2023-10-31T03:56:27;9.40;;;3.03;;
17790;SDS011;9019;48.132;-1.210;2023-10-31T03:58:54;13.70;;;3.33;;
17790;SDS011;9019;48.132;-1.210;2023-10-31T04:01:21;10.67;;;2.73;;
17790;SDS011;9019;48.132;-1.210;2023-10-31T04:03:49;10.57;;;3.40;;
17790;SDS011;9019;48.132;-1.210;2023-10-31T04:06:17;13.03;;;3.17;;
17790;SDS011;9019;48.132;-1.210;2023-10-31T04:08:45;12.97;;;3.40;;
17790;SDS011;9019;48.132;-1.210;2023-10-31T04:11:12;10.63;;;3.10;;
17790;SDS011;9019;48.132;-1.210;2023-10-31T04:13:39;9.73;;;3.07;;
17790;SDS011;9019;48.132;-1.210;2023-10-31T04:16:07;7.50;;;2.80;;
17790;SDS011;9019;48.132;-1.210;2023-10-31T04:18:35;12.37;;;3.37;;
17790;SDS011;9019;48.132;-1.210;2023-10-31T04:21:03;11.67;;;3.93;;
17790;SDS011;9019;48.132;-1.210;2023-10-31T04:23:31;9.47;;;3.40;;
17790;SDS011;9019;48.132;-1.210;2023-10-31T04:25:59;16.87;;;4.20;;
17790;SDS011;9019;48.132;-1.210;2023-10-31T04:28:26;12.60;;;3.70;;
17790;SDS011;9019;48.132;-1.210;2023-10-31T04:30:53;11.57;;;3.63;;
17790;SDS011;9019;48.132;-1.210;2023-10-31T04:33:21;12.53;;;3.30;;
17790;SDS011;9019;48.132;-1.210;2023-10-31T04:35:48;7.07;;;3.20;;
17790;SDS011;9019;48.132;-1.210;2023-10-31T04:38:15;9.57;;;3.00;;
17790;SDS011;9019;48.132;-1.210;2023-10-31T04:40:44;17.17;;;3.43;;
17790;SDS011;9019;48.132;-1.210;2023-10-31T04:43:11;12.47;;;2.90;;
17790;SDS011;9019;48.132;-1.210;2023-10-31T04:45:38;8.83;;;2.87;;
17790;SDS011;9019;48.132;-1.210;2023-10-31T04:48:05;9.27;;;2.80;;
17790;SDS011;9019;48.132;-1.210;2023-10-31T04:50:33;7.23;;;2.87;;
17790;SDS011;9019;48.132;-1.210;2023-10-31T04:53:00;5.20;;;2.30;;
17790;SDS011;9019;48.132;-1.210;2023-10-31T04:55:27;9.00;;;3.10;;
17790;SDS011;9019;48.132;-1.210;2023-10-31T04:57:56;14.13;;;2.90;;
17790;SDS011;9019;48.132;-1.210;2023-10-31T05:00:23;8.30;;;2.57;;
17790;SDS011;9019;48.132;-1.210;2023-10-31T05:02:50;7.30;;;2.37;;
17790;SDS011;9019;48.132;-1.210;2023-10-31T05:05:18;8.77;;;2.43;;
17790;SDS011;9019;48.132;-1.210;2023-10-31T05:07:45;6.67;;;2.73;;
17790;SDS011;9019;48.132;-1.210;2023-10-31T05:10:13;9.03;;;2.87;;
17790;SDS011;9019;48.132;-1.210;2023-10-31T05:12:40;10.93;;;2.83;;
17790;SDS011;9019;48.132;-1.210;2023-10-31T05:15:09;9.93;;;2.77;;
17790;SDS011;9019;48.132;-1.210;2023-10-31T05:17:37;6.93;;;3.20;;
17790;SDS011;9019;48.132;-1.210;2023-10-31T05:20:04;14.20;;;3.03;;
17790;SDS011;9019;48.132;-1.210;2023-10-31T05:22:32;8.47;;;2.60;;
17790;SDS011;9019;48.132;-1.210;2023-10-31T05:24:59;8.03;;;2.47;;
17790;SDS011;9019;48.132;-1.210;2023-10-31T05:27:26;8.43;;;2.73;;
17790;SDS011;9019;48.132;-1.210;2023-10-31T05:29:54;12.80;;;2.70;;
17790;SDS011;9019;48.132;-1.210;2023-10-31T05:32:22;8.20;;;2.20;;
17790;SDS011;9019;48.132;-1.210;2023-10-31T05:34:50;7.93;;;2.83;;
17790;SDS011;9019;48.132;-1.210;2023-10-31T05:37:17;11.37;;;3.30;;
17790;SDS011;9019;48.132;-1.210;2023-10-31T05:39:44;6.27;;;2.80;;
17790;SDS011;9019;48.132;-1.210;2023-10-31T05:42:11;14.77;;;3.30;;
17790;SDS011;9019;48.132;-1.210;2023-10-31T05:44:39;8.80;;;2.53;;
17790;SDS011;9019;48.132;-1.210;2023-10-31T05:47:06;7.53;;;2.60;;
17790;SDS011;9019;48.132;-1.210;2023-10-31T05:49:35;10.63;;;2.80;;
17790;SDS011;9019;48.132;-1.210;2023-10-31T05:52:02;12.20;;;3.00;;
17790;SDS011;9019;48.132;-1.210;2023-10-31T05:54:30;9.07;;;2.30;;
17790;SDS011;9019;48.132;-1.210;2023-10-31T05:56:57;10.57;;;2.60;;
17790;SDS011;9019;48.132;-1.210;2023-10-31T05:59:24;11.43;;;2.70;;
17790;SDS011;9019;48.132;-1.210;2023-10-31T06:01:51;8.93;;;2.30;;
17790;SDS011;9019;48.132;-1.210;2023-10-31T06:04:18;13.13;;;2.90;;
17790;SDS011;9019;48.132;-1.210;2023-10-31T06:06:47;9.27;;;2.70;;
17790;SDS011;9019;48.132;-1.210;2023-10-31T06:09:14;9.87;;;3.00;;
17790;SDS011;9019;48.132;-1.210;2023-10-31T06:11:42;11.60;;;3.30;;
17790;SDS011;9019;48.132;-1.210;2023-10-31T06:14:09;8.70;;;2.97;;
17790;SDS011;9019;48.132;-1.210;2023-10-31T06:16:39;8.77;;;2.77;;
17790;SDS011;9019;48.132;-1.210;2023-10-31T06:19:07;10.60;;;2.80;;
17790;SDS011;9019;48.132;-1.210;2023-10-31T06:21:34;9.83;;;2.80;;
17790;SDS011;9019;48.132;-1.210;2023-10-31T06:24:04;17.83;;;3.00;;
17790;SDS011;9019;48.132;-1.210;2023-10-31T06:26:31;10.70;;;2.57;;
17790;SDS011;9019;48.132;-1.210;2023-10-31T06:28:59;9.93;;;2.17;;
17790;SDS011;9019;48.132;-1.210;2023-10-31T06:31:26;13.27;;;2.40;;
17790;SDS011;9019;48.132;-1.210;2023-10-31T06:33:53;12.03;;;2.77;;
17790;SDS011;9019;48.132;-1.210;2023-10-31T06:36:20;10.90;;;2.53;;
17790;SDS011;9019;48.132;-1.210;2023-10-31T06:38:48;14.90;;;2.70;;
17790;SDS011;9019;48.132;-1.210;2023-10-31T06:41:16;8.63;;;2.87;;
17790;SDS011;9019;48.132;-1.210;2023-10-31T06:43:44;11.10;;;2.43;;
17790;SDS011;9019;48.132;-1.210;2023-10-31T06:46:11;7.97;;;2.97;;
17790;SDS011;9019;48.132;-1.210;2023-10-31T06:48:40;12.50;;;3.17;;
17790;SDS011;9019;48.132;-1.210;2023-10-31T06:51:07;10.80;;;3.07;;
17790;SDS011;9019;48.132;-1.210;2023-10-31T06:53:34;11.33;;;3.33;;
17790;SDS011;9019;48.132;-1.210;2023-10-31T06:56:02;10.07;;;3.63;;
17790;SDS011;9019;48.132;-1.210;2023-10-31T06:58:30;14.77;;;4.43;;
17790;SDS011;9019;48.132;-1.210;2023-10-31T07:00:58;12.80;;;3.47;;
17790;SDS011;9019;48.132;-1.210;2023-10-31T07:03:25;8.00;;;3.23;;
17790;SDS011;9019;48.132;-1.210;2023-10-31T07:05:52;8.57;;;3.30;;
17790;SDS011;9019;48.132;-1.210;2023-10-31T07:08:21;14.10;;;4.33;;
17790;SDS011;9019;48.132;-1.210;2023-10-31T07:10:48;20.90;;;6.60;;
17790;SDS011;9019;48.132;-1.210;2023-10-31T07:13:15;19.03;;;5.70;;
17790;SDS011;9019;48.132;-1.210;2023-10-31T07:15:44;12.70;;;5.57;;
17790;SDS011;9019;48.132;-1.210;2023-10-31T07:18:11;16.70;;;5.37;;
17790;SDS011;9019;48.132;-1.210;2023-10-31T07:20:39;12.37;;;5.50;;
17790;SDS011;9019;48.132;-1.210;2023-10-31T07:23:06;16.30;;;4.50;;
17790;SDS011;9019;48.132;-1.210;2023-10-31T07:25:33;9.67;;;3.80;;
17790;SDS011;9019;48.132;-1.210;2023-10-31T07:28:00;15.33;;;4.53;;
17790;SDS011;9019;48.132;-1.210;2023-10-31T07:30:27;14.60;;;4.10;;
17790;SDS011;9019;48.132;-1.210;2023-10-31T07:32:56;14.63;;;3.57;;
17790;SDS011;9019;48.132;-1.210;2023-10-31T07:35:23;11.60;;;3.47;;
17790;SDS011;9019;48.132;-1.210;2023-10-31T07:37:51;12.83;;;3.33;;
17790;SDS011;9019;48.132;-1.210;2023-10-31T07:40:18;10.90;;;3.13;;
17790;SDS011;9019;48.132;-1.210;2023-10-31T07:42:45;9.47;;;2.83;;
17790;SDS011;9019;48.132;-1.210;2023-10-31T07:45:12;11.53;;;2.80;;
17790;SDS011;9019;48.132;-1.210;2023-10-31T07:47:40;10.77;;;2.60;;
17790;SDS011;9019;48.132;-1.210;2023-10-31T07:50:09;8.47;;;2.50;;
17790;SDS011;9019;48.132;-1.210;2023-10-31T07:52:38;10.20;;;2.70;;
17790;SDS011;9019;48.132;-1.210;2023-10-31T07:55:05;8.27;;;2.30;;
17790;SDS011;9019;48.132;-1.210;2023-10-31T07:57:33;9.10;;;2.30;;
17790;SDS011;9019;48.132;-1.210;2023-10-31T08:00:00;9.23;;;2.33;;
17790;SDS011;9019;48.132;-1.210;2023-10-31T08:02:28;9.48;;;2.67;;
17790;SDS011;9019;48.132;-1.210;2023-10-31T08:04:55;7.72;;;2.50;;
17790;SDS011;9019;48.132;-1.210;2023-10-31T08:07:24;7.40;;;2.90;;
17790;SDS011;9019;48.132;-1.210;2023-10-31T08:09:55;7.85;;;2.50;;
17790;SDS011;9019;48.132;-1.210;2023-10-31T08:12:22;9.07;;;2.63;;
17790;SDS011;9019;48.132;-1.210;2023-10-31T08:14:49;8.00;;;2.50;;
17790;SDS011;9019;48.132;-1.210;2023-10-31T08:17:17;9.57;;;2.70;;
17790;SDS011;9019;48.132;-1.210;2023-10-31T08:19:44;8.07;;;2.13;;
17790;SDS011;9019;48.132;-1.210;2023-10-31T08:22:11;8.63;;;2.38;;
17790;SDS011;9019;48.132;-1.210;2023-10-31T08:24:40;8.40;;;2.53;;
17790;SDS011;9019;48.132;-1.210;2023-10-31T08:27:07;8.05;;;2.28;;
17790;SDS011;9019;48.132;-1.210;2023-10-31T08:29:35;8.18;;;2.60;;
17790;SDS011;9019;48.132;-1.210;2023-10-31T08:32:03;10.20;;;3.20;;
17790;SDS011;9019;48.132;-1.210;2023-10-31T08:34:30;12.75;;;3.50;;
17790;SDS011;9019;48.132;-1.210;2023-10-31T08:36:57;8.75;;;2.85;;
17790;SDS011;9019;48.132;-1.210;2023-10-31T08:39:25;7.72;;;3.40;;
17790;SDS011;9019;48.132;-1.210;2023-10-31T08:41:54;10.38;;;3.20;;
17790;SDS011;9019;48.132;-1.210;2023-10-31T08:44:22;9.18;;;3.08;;
17790;SDS011;9019;48.132;-1.210;2023-10-31T08:46:49;8.18;;;3.33;;
17790;SDS011;9019;48.132;-1.210;2023-10-31T08:49:16;11.63;;;3.30;;
17790;SDS011;9019;48.132;-1.210;2023-10-31T08:51:44;8.00;;;2.80;;
17790;SDS011;9019;48.132;-1.210;2023-10-31T08:54:11;9.80;;;3.10;;
17790;SDS011;9019;48.132;-1.210;2023-10-31T08:56:38;8.90;;;2.47;;
17790;SDS011;9019;48.132;-1.210;2023-10-31T08:59:07;10.70;;;2.72;;
17790;SDS011;9019;48.132;-1.210;2023-10-31T09:01:34;10.73;;;2.45;;
17790;SDS011;9019;48.132;-1.210;2023-10-31T09:04:01;8.93;;;2.70;;
17790;SDS011;9019;48.132;-1.210;2023-10-31T09:06:29;12.75;;;3.38;;
17790;SDS011;9019;48.132;-1.210;2023-10-31T09:08:56;7.25;;;2.63;;
17790;SDS011;9019;48.132;-1.210;2023-10-31T09:11:23;9.57;;;2.95;;
17790;SDS011;9019;48.132;-1.210;2023-10-31T09:13:50;11.63;;;3.33;;
17790;SDS011;9019;48.132;-1.210;2023-10-31T09:16:19;7.82;;;3.05;;
17790;SDS011;9019;48.132;-1.210;2023-10-31T09:18:46;10.77;;;2.65;;
17790;SDS011;9019;48.132;-1.210;2023-10-31T09:21:13;7.57;;;2.45;;
17790;SDS011;9019;48.132;-1.210;2023-10-31T09:23:40;6.47;;;2.58;;
17790;SDS011;9019;48.132;-1.210;2023-10-31T09:26:08;9.60;;;2.72;;
17790;SDS011;9019;48.132;-1.210;2023-10-31T09:28:35;10.85;;;2.70;;
17790;SDS011;9019;48.132;-1.210;2023-10-31T09:31:04;13.07;;;2.90;;
17790;SDS011;9019;48.132;-1.210;2023-10-31T09:33:33;12.60;;;2.65;;
17790;SDS011;9019;48.132;-1.210;2023-10-31T09:36:00;9.57;;;2.63;;
17790;SDS011;9019;48.132;-1.210;2023-10-31T09:38:27;8.48;;;2.88;;
17790;SDS011;9019;48.132;-1.210;2023-10-31T09:40:54;9.27;;;2.65;;
17790;SDS011;9019;48.132;-1.210;2023-10-31T09:43:22;8.00;;;2.40;;
17790;SDS011;9019;48.132;-1.210;2023-10-31T09:45:49;9.73;;;2.30;;
17790;SDS011;9019;48.132;-1.210;2023-10-31T09:48:16;13.10;;;2.67;;
17790;SDS011;9019;48.132;-1.210;2023-10-31T09:50:46;11.05;;;2.60;;
17790;SDS011;9019;48.132;-1.210;2023-10-31T09:53:14;9.10;;;2.30;;
17790;SDS011;9019;48.132;-1.210;2023-10-31T09:55:41;9.07;;;2.45;;
17790;SDS011;9019;48.132;-1.210;2023-10-31T09:58:09;9.32;;;2.15;;
17790;SDS011;9019;48.132;-1.210;2023-10-31T10:00:36;8.80;;;2.08;;
17790;SDS011;9019;48.132;-1.210;2023-10-31T10:03:05;9.75;;;1.92;;
17790;SDS011;9019;48.132;-1.210;2023-10-31T10:05:34;10.25;;;2.50;;
17790;SDS011;9019;48.132;-1.210;2023-10-31T10:08:04;9.52;;;2.17;;
17790;SDS011;9019;48.132;-1.210;2023-10-31T10:10:32;11.95;;;2.53;;
17790;SDS011;9019;48.132;-1.210;2023-10-31T10:13:00;8.80;;;2.28;;
17790;SDS011;9019;48.132;-1.210;2023-10-31T10:15:28;9.93;;;2.25;;
17790;SDS011;9019;48.132;-1.210;2023-10-31T10:17:55;9.20;;;2.00;;
17790;SDS011;9019;48.132;-1.210;2023-10-31T10:20:22;11.50;;;2.40;;
17790;SDS011;9019;48.132;-1.210;2023-10-31T10:22:49;9.93;;;2.45;;
17790;SDS011;9019;48.132;-1.210;2023-10-31T10:25:18;8.10;;;2.10;;
17790;SDS011;9019;48.132;-1.210;2023-10-31T10:27:45;9.07;;;2.42;;
17790;SDS011;9019;48.132;-1.210;2023-10-31T10:30:13;10.73;;;3.20;;
17790;SDS011;9019;48.132;-1.210;2023-10-31T10:32:41;10.30;;;2.63;;
17790;SDS011;9019;48.132;-1.210;2023-10-31T10:35:08;8.73;;;2.28;;
17790;SDS011;9019;48.132;-1.210;2023-10-31T10:37:36;11.20;;;2.50;;
17790;SDS011;9019;48.132;-1.210;2023-10-31T10:40:05;11.98;;;2.70;;
17790;SDS011;9019;48.132;-1.210;2023-10-31T10:42:36;9.07;;;2.45;;
17790;SDS011;9019;48.132;-1.210;2023-10-31T10:45:09;12.93;;;2.88;;
17790;SDS011;9019;48.132;-1.210;2023-10-31T10:47:37;8.35;;;2.53;;
17790;SDS011;9019;48.132;-1.210;2023-10-31T10:50:05;12.02;;;2.20;;
17790;SDS011;9019;48.132;-1.210;2023-10-31T10:52:35;7.20;;;1.90;;
17790;SDS011;9019;48.132;-1.210;2023-10-31T10:55:03;7.22;;;1.75;;
17790;SDS011;9019;48.132;-1.210;2023-10-31T10:57:35;6.63;;;1.77;;
17790;SDS011;9019;48.132;-1.210;2023-10-31T11:00:06;8.75;;;1.67;;
17790;SDS011;9019;48.132;-1.210;2023-10-31T11:02:38;5.90;;;1.98;;
17790;SDS011;9019;48.132;-1.210;2023-10-31T11:05:06;10.05;;;2.00;;
17790;SDS011;9019;48.132;-1.210;2023-10-31T11:07:33;9.02;;;1.90;;
17790;SDS011;9019;48.132;-1.210;2023-10-31T11:10:01;14.07;;;2.88;;
17790;SDS011;9019;48.132;-1.210;2023-10-31T11:12:30;11.20;;;2.25;;
17790;SDS011;9019;48.132;-1.210;2023-10-31T11:14:59;7.80;;;2.25;;
17790;SDS011;9019;48.132;-1.210;2023-10-31T11:17:28;7.32;;;1.90;;
17790;SDS011;9019;48.132;-1.210;2023-10-31T11:19:55;11.32;;;2.38;;
17790;SDS011;9019;48.132;-1.210;2023-10-31T11:22:23;11.55;;;2.10;;
17790;SDS011;9019;48.132;-1.210;2023-10-31T11:24:50;10.45;;;2.20;;
17790;SDS011;9019;48.132;-1.210;2023-10-31T11:27:18;14.65;;;2.53;;
17790;SDS011;9019;48.132;-1.210;2023-10-31T11:29:45;11.90;;;2.15;;
17790;SDS011;9019;48.132;-1.210;2023-10-31T11:32:16;11.15;;;2.25;;
17790;SDS011;9019;48.132;-1.210;2023-10-31T11:34:43;8.90;;;1.85;;
17790;SDS011;9019;48.132;-1.210;2023-10-31T11:37:23;10.13;;;1.90;;
17790;SDS011;9019;48.132;-1.210;2023-10-31T11:42:37;7.53;;;2.50;;
17790;SDS011;9019;48.132;-1.210;2023-10-31T11:45:05;12.73;;;3.20;;
17790;SDS011;9019;48.132;-1.210;2023-10-31T11:47:47;11.77;;;2.45;;
17790;SDS011;9019;48.132;-1.210;2023-10-31T11:50:14;11.98;;;2.53;;
17790;SDS011;9019;48.132;-1.210;2023-10-31T11:52:41;7.82;;;1.90;;
17790;SDS011;9019;48.132;-1.210;2023-10-31T11:55:09;9.43;;;1.90;;
17790;SDS011;9019;48.132;-1.210;2023-10-31T11:57:36;12.43;;;1.95;;
17790;SDS011;9019;48.132;-1.210;2023-10-31T12:00:04;7.65;;;2.08;;
17790;SDS011;9019;48.132;-1.210;2023-10-31T12:02:32;10.32;;;2.55;;
17790;SDS011;9019;48.132;-1.210;2023-10-31T12:05:10;8.25;;;2.05;;
17790;SDS011;9019;48.132;-1.210;2023-10-31T12:07:42;11.45;;;2.45;;
17790;SDS011;9019;48.132;-1.210;2023-10-31T12:10:10;10.13;;;2.88;;
17790;SDS011;9019;48.132;-1.210;2023-10-31T12:12:37;13.70;;;3.45;;
17790;SDS011;9019;48.132;-1.210;2023-10-31T12:15:05;9.60;;;2.55;;
17790;SDS011;9019;48.132;-1.210;2023-10-31T12:17:33;10.70;;;2.10;;
17790;SDS011;9019;48.132;-1.210;2023-10-31T12:20:03;7.68;;;1.90;;
17790;SDS011;9019;48.132;-1.210;2023-10-31T12:22:31;10.40;;;2.17;;
17790;SDS011;9019;48.132;-1.210;2023-10-31T12:25:01;9.52;;;2.22;;
17790;SDS011;9019;48.132;-1.210;2023-10-31T12:27:41;8.40;;;1.95;;
17790;SDS011;9019;48.132;-1.210;2023-10-31T12:30:09;9.40;;;2.40;;
17790;SDS011;9019;48.132;-1.210;2023-10-31T12:32:37;9.15;;;1.80;;
17790;SDS011;9019;48.132;-1.210;2023-10-31T12:35:04;10.98;;;2.05;;
17790;SDS011;9019;48.132;-1.210;2023-10-31T12:37:33;6.43;;;1.90;;
17790;SDS011;9019;48.132;-1.210;2023-10-31T12:40:00;9.57;;;2.08;;
17790;SDS011;9019;48.132;-1.210;2023-10-31T12:42:29;8.25;;;2.42;;
17790;SDS011;9019;48.132;-1.210;2023-10-31T12:44:58;8.23;;;2.15;;
17790;SDS011;9019;48.132;-1.210;2023-10-31T12:47:25;11.10;;;2.42;;
17790;SDS011;9019;48.132;-1.210;2023-10-31T12:50:05;8.63;;;2.13;;
17790;SDS011;9019;48.132;-1.210;2023-10-31T12:55:17;9.25;;;2.80;;
17790;SDS011;9019;48.132;-1.210;2023-10-31T12:57:45;9.63;;;2.28;;
17790;SDS011;9019;48.132;-1.210;2023-10-31T13:00:12;14.75;;;2.70;;
17790;SDS011;9019;48.132;-1.210;2023-10-31T13:02:40;7.68;;;2.20;;
17790;SDS011;9019;48.132;-1.210;2023-10-31T13:05:08;10.90;;;2.22;;
17790;SDS011;9019;48.132;-1.210;2023-10-31T13:07:35;9.45;;;2.63;;
17790;SDS011;9019;48.132;-1.210;2023-10-31T13:10:02;9.52;;;2.92;;
17790;SDS011;9019;48.132;-1.210;2023-10-31T13:12:32;12.02;;;3.03;;
17790;SDS011;9019;48.132;-1.210;2023-10-31T13:14:59;9.30;;;2.85;;
17790;SDS011;9019;48.132;-1.210;2023-10-31T13:17:27;12.25;;;2.97;;
17790;SDS011;9019;48.132;-1.210;2023-10-31T13:19:56;13.45;;;3.00;;
17790;SDS011;9019;48.132;-1.210;2023-10-31T13:22:23;13.30;;;2.85;;
17790;SDS011;9019;48.132;-1.210;2023-10-31T13:24:50;12.02;;;2.53;;
17790;SDS011;9019;48.132;-1.210;2023-10-31T13:27:18;12.75;;;2.67;;
17790;SDS011;9019;48.132;-1.210;2023-10-31T13:29:47;12.45;;;2.45;;
17790;SDS011;9019;48.132;-1.210;2023-10-31T13:32:15;12.50;;;2.30;;
17790;SDS011;9019;48.132;-1.210;2023-10-31T13:34:42;10.93;;;2.35;;
17790;SDS011;9019;48.132;-1.210;2023-10-31T13:37:09;12.00;;;2.42;;
17790;SDS011;9019;48.132;-1.210;2023-10-31T13:39:36;9.20;;;1.90;;
17790;SDS011;9019;48.132;-1.210;2023-10-31T13:42:04;10.93;;;1.85;;
17790;SDS011;9019;48.132;-1.210;2023-10-31T13:44:31;14.88;;;2.30;;
17790;SDS011;9019;48.132;-1.210;2023-10-31T13:47:00;8.95;;;2.33;;
17790;SDS011;9019;48.132;-1.210;2023-10-31T13:49:27;12.45;;;2.47;;
17790;SDS011;9019;48.132;-1.210;2023-10-31T13:51:54;8.98;;;2.05;;
17790;SDS011;9019;48.132;-1.210;2023-10-31T13:54:21;8.65;;;2.10;;
17790;SDS011;9019;48.132;-1.210;2023-10-31T13:56:48;9.27;;;2.35;;
17790;SDS011;9019;48.132;-1.210;2023-10-31T13:59:16;10.20;;;2.80;;
17790;SDS011;9019;48.132;-1.210;2023-10-31T14:01:44;12.73;;;2.88;;
17790;SDS011;9019;48.132;-1.210;2023-10-31T14:04:13;14.80;;;3.63;;
17790;SDS011;9019;48.132;-1.210;2023-10-31T14:06:40;13.93;;;2.80;;
17790;SDS011;9019;48.132;-1.210;2023-10-31T14:09:08;12.70;;;2.70;;
17790;SDS011;9019;48.132;-1.210;2023-10-31T14:11:37;12.00;;;3.30;;
17790;SDS011;9019;48.132;-1.210;2023-10-31T14:14:05;10.57;;;3.03;;
17790;SDS011;9019;48.132;-1.210;2023-10-31T14:16:34;14.38;;;2.63;;
17790;SDS011;9019;48.132;-1.210;2023-10-31T14:19:01;21.65;;;3.67;;
17790;SDS011;9019;48.132;-1.210;2023-10-31T14:21:30;13.77;;;2.38;;
17790;SDS011;9019;48.132;-1.210;2023-10-31T14:23:57;12.65;;;2.47;;
17790;SDS011;9019;48.132;-1.210;2023-10-31T14:26:24;15.20;;;2.58;;
17790;SDS011;9019;48.132;-1.210;2023-10-31T14:28:51;10.90;;;2.33;;
17790;SDS011;9019;48.132;-1.210;2023-10-31T14:31:19;15.98;;;3.25;;
17790;SDS011;9019;48.132;-1.210;2023-10-31T14:33:47;13.35;;;3.00;;
17790;SDS011;9019;48.132;-1.210;2023-10-31T14:36:14;15.75;;;2.75;;
17790;SDS011;9019;48.132;-1.210;2023-10-31T14:38:43;14.57;;;2.35;;
17790;SDS011;9019;48.132;-1.210;2023-10-31T14:41:10;13.35;;;2.42;;
17790;SDS011;9019;48.132;-1.210;2023-10-31T14:43:39;13.50;;;2.80;;
17790;SDS011;9019;48.132;-1.210;2023-10-31T14:46:06;15.15;;;2.70;;
17790;SDS011;9019;48.132;-1.210;2023-10-31T14:48:34;12.32;;;2.42;;